createdAt,value
2022-07-26T00:00:00.193Z,55.2
2022-07-26T00:05:00.182Z,55.3
2022-07-26T00:10:00.201Z,55.8
2022-07-26T00:15:00.180Z,55.5
2022-07-26T00:20:00.220Z,55.5
2022-07-26T00:25:00.169Z,56.1
2022-07-26T00:30:00.208Z,56.4
2022-07-26T00:35:00.438Z,57
2022-07-26T00:40:00.211Z,57
2022-07-26T00:45:00.179Z,56.4
2022-07-26T00:50:00.189Z,57
2022-07-26T00:55:00.200Z,56.4
2022-07-26T01:00:00.203Z,56.4
2022-07-26T01:05:00.168Z,57
2022-07-26T01:10:00.182Z,57.7
2022-07-26T01:15:00.199Z,57
2022-07-26T01:20:00.204Z,57.3
2022-07-26T01:25:00.185Z,58
2022-07-26T01:30:00.177Z,58.6
2022-07-26T01:35:00.177Z,58.6
2022-07-26T01:40:00.182Z,58.6
2022-07-26T01:45:00.175Z,59.2
2022-07-26T01:50:00.171Z,59.5
2022-07-26T01:55:00.501Z,59.5
2022-07-26T02:00:00.195Z,60.2
2022-07-26T02:05:01.517Z,60.2
2022-07-26T02:10:01.102Z,60.8
2022-07-26T02:15:00.209Z,61.2
2022-07-26T02:20:00.166Z,61.5
2022-07-26T02:25:04.834Z,62.1
2022-07-26T02:30:00.189Z,62.7
2022-07-26T02:35:00.165Z,62.7
2022-07-26T02:40:00.319Z,63.1
2022-07-26T02:45:00.458Z,64
2022-07-26T02:50:00.294Z,64
2022-07-26T02:55:00.208Z,64
2022-07-26T03:00:00.300Z,64.7
2022-07-26T03:05:00.365Z,65.3
2022-07-26T03:10:00.476Z,65.6
2022-07-26T03:15:00.279Z,66
2022-07-26T03:20:00.260Z,68.2
2022-07-26T03:25:00.173Z,69.2
2022-07-26T03:30:00.251Z,69.1
2022-07-26T03:35:00.186Z,69.1
2022-07-26T03:40:00.198Z,70.1
2022-07-26T03:45:00.178Z,71
2022-07-26T03:50:00.196Z,71
2022-07-26T03:55:00.217Z,71.4
2022-07-26T04:00:00.194Z,72
2022-07-26T04:05:00.176Z,71.7
2022-07-26T04:10:00.187Z,72.3
2022-07-26T04:15:00.184Z,72.3
2022-07-26T04:20:00.186Z,73
2022-07-26T04:25:00.174Z,72.6
2022-07-26T04:30:00.341Z,73
2022-07-26T04:35:00.180Z,73.3
2022-07-26T04:40:00.176Z,73.6
2022-07-26T04:45:04.401Z,73.9
2022-07-26T04:50:00.264Z,73.6
2022-07-26T04:55:00.947Z,73.6
2022-07-26T05:00:20.299Z,73.6
2022-07-26T05:05:00.188Z,74.2
2022-07-26T05:10:00.179Z,73.9
2022-07-26T05:15:00.182Z,73.6
2022-07-26T05:20:03.210Z,73.3
2022-07-26T05:25:00.184Z,73.6
2022-07-26T05:30:00.170Z,73.3
2022-07-26T05:35:00.166Z,74
2022-07-26T05:40:01.571Z,73.3
2022-07-26T05:45:00.645Z,73.7
2022-07-26T05:50:00.241Z,73.3
2022-07-26T05:55:00.320Z,74.3
2022-07-26T06:00:00.192Z,73.7
2022-07-26T06:05:00.173Z,74.3
2022-07-26T06:10:00.193Z,72.4
2022-07-26T06:15:00.180Z,66.4
2022-07-26T06:20:00.176Z,66.7
2022-07-26T06:25:00.194Z,66.4
2022-07-26T06:30:00.291Z,66
2022-07-26T06:35:00.179Z,65.1
2022-07-26T06:40:00.193Z,64.1
2022-07-26T06:45:00.150Z,62.2
2022-07-26T06:50:00.178Z,62.2
2022-07-26T06:55:00.228Z,63.5
2022-07-26T07:00:00.199Z,62.3
2022-07-26T07:05:00.338Z,62.3
2022-07-26T07:10:00.155Z,62
2022-07-26T07:15:00.180Z,66.5
2022-07-26T07:20:01.204Z,67.4
2022-07-26T07:25:00.198Z,68.7
2022-07-26T07:30:00.196Z,67.5
2022-07-26T07:35:00.183Z,66.2
2022-07-26T07:40:00.169Z,67.2
2022-07-26T07:45:00.170Z,65.9
2022-07-26T07:50:00.176Z,66.2
2022-07-26T07:55:21.847Z,67.5
2022-07-26T08:00:00.267Z,67.5
2022-07-26T08:05:11.289Z,67.4
2022-07-26T08:10:00.244Z,67.1
2022-07-26T08:15:00.168Z,64.8
2022-07-26T08:20:00.187Z,65.2
2022-07-26T08:25:00.265Z,65.5
2022-07-26T08:30:00.408Z,65.6
2022-07-26T08:35:17.781Z,64.1
2022-07-26T08:40:00.429Z,58.7
2022-07-26T08:45:00.438Z,58.3
2022-07-26T08:50:00.330Z,57.2
2022-07-26T08:55:00.413Z,58.8
2022-07-26T09:00:00.461Z,56.5
2022-07-26T09:05:00.202Z,57.1
2022-07-26T09:10:00.242Z,57.1
2022-07-26T09:15:00.180Z,56.5
2022-07-26T09:20:00.176Z,55.9
2022-07-26T09:25:00.183Z,55.6
2022-07-26T09:30:00.179Z,54
2022-07-26T09:35:00.517Z,56.6
2022-07-26T09:40:00.768Z,52.8
2022-07-26T09:45:00.177Z,51.3
2022-07-26T09:50:00.296Z,49.1
2022-07-26T09:55:00.272Z,50.3
2022-07-26T10:00:00.183Z,48.4
2022-07-26T10:05:00.209Z,47.7
2022-07-26T11:40:00.227Z,41.7
2022-07-26T13:10:31.260Z,33.7
2022-07-26T13:15:01.347Z,31.7
2022-07-26T13:34:35.236Z,34.3
2022-07-26T13:39:11.765Z,33
2022-07-26T13:43:48.817Z,34.3
2022-07-26T13:48:25.683Z,33.6
2022-07-26T13:53:02.492Z,35.3
2022-07-26T13:57:49.587Z,35.3
2022-07-26T14:02:16.487Z,34.3
2022-07-26T14:06:53.286Z,34
2022-07-26T14:11:30.691Z,33.6
2022-07-26T14:16:07.186Z,33.6
2022-07-26T14:20:44.029Z,35
2022-07-26T14:25:20.986Z,33
2022-07-26T14:29:57.942Z,35
2022-07-26T14:34:34.824Z,35
2022-07-26T14:39:11.786Z,35.9
2022-07-26T14:43:54.090Z,32.3
2022-07-26T14:48:51.781Z,34.9
2022-07-26T14:53:02.572Z,33.6
2022-07-26T14:57:41.720Z,34.3
2022-07-26T15:02:16.757Z,34.3
2022-07-26T15:06:53.259Z,34.6
2022-07-26T15:11:30.214Z,33
2022-07-26T15:16:08.359Z,33.7
2022-07-26T15:20:44.052Z,34
2022-07-26T15:25:20.948Z,31.2
2022-07-26T15:30:03.387Z,28.6
2022-07-26T15:34:34.799Z,29.8
2022-07-26T15:39:17.197Z,31.4
2022-07-26T15:43:49.306Z,29.8
2022-07-26T15:48:25.652Z,32
2022-07-26T15:53:02.490Z,33
2022-07-26T15:57:40.325Z,34
2022-07-26T16:02:16.386Z,34.6
2022-07-26T16:06:53.285Z,33.7
2022-07-26T16:11:30.203Z,33.7
2022-07-26T16:16:07.150Z,32.4
2022-07-26T16:20:44.029Z,33.1
2022-07-26T16:25:20.979Z,32.1
2022-07-26T16:29:57.870Z,33.1
2022-07-26T16:34:34.840Z,31.1
2022-07-26T16:39:12.712Z,32.4
2022-07-26T16:43:48.640Z,30.6
2022-07-26T16:48:25.611Z,25.5
2022-07-26T16:53:03.464Z,22.3
2022-07-26T16:57:39.519Z,21
2022-07-26T17:02:16.571Z,20.4
2022-07-26T17:07:22.182Z,20.1
2022-07-26T17:11:32.256Z,20
2022-07-26T17:16:07.220Z,20.6
2022-07-26T17:20:44.148Z,23.5
2022-07-26T17:25:21.074Z,26
2022-07-26T17:29:59.856Z,28.6
2022-07-26T17:34:34.887Z,29.8
2022-07-26T17:39:15.109Z,31.1
2022-07-26T17:43:48.684Z,32
2022-07-26T17:48:25.560Z,34.3
2022-07-26T17:53:02.576Z,33.6
2022-07-26T17:57:39.513Z,34.8
2022-07-26T18:02:16.407Z,36.8
2022-07-26T18:06:53.292Z,36.8
2022-07-26T18:11:30.207Z,36.7
2022-07-26T18:16:07.298Z,37.3
2022-07-26T18:20:44.025Z,38.3
2022-07-26T18:25:20.985Z,38.6
2022-07-26T18:29:57.867Z,39.2
2022-07-26T18:34:34.833Z,39.2
2022-07-26T18:39:12.103Z,39.8
2022-07-26T18:43:48.680Z,40.5
2022-07-26T18:48:25.600Z,41.1
2022-07-26T18:53:02.483Z,42.1
2022-07-26T18:57:39.440Z,42.4
2022-07-26T19:02:16.330Z,41.7
2022-07-26T19:06:53.282Z,42.3
2022-07-26T19:11:30.234Z,43.3
2022-07-26T19:16:07.215Z,44.2
2022-07-26T19:20:44.066Z,44.2
2022-07-26T19:25:20.947Z,43.9
2022-07-26T19:29:58.857Z,44.5
2022-07-26T19:34:34.849Z,45.2
2022-07-26T19:39:12.154Z,44.8
2022-07-26T19:43:48.638Z,46.1
2022-07-26T19:48:25.594Z,47.4
2022-07-26T19:53:02.489Z,47.4
2022-07-26T19:57:39.440Z,47.4
2022-07-26T20:02:16.383Z,47
2022-07-26T20:06:53.285Z,47
2022-07-26T20:11:30.174Z,47.7
2022-07-26T20:16:07.953Z,48
2022-07-26T20:20:44.038Z,48.6
2022-07-26T20:25:21.915Z,48.6
2022-07-26T20:30:01.127Z,50.5
2022-07-26T20:34:34.815Z,50.5
2022-07-26T20:39:12.254Z,51.7
2022-07-26T20:43:48.635Z,51.7
2022-07-26T20:48:25.578Z,53
2022-07-26T20:53:02.483Z,54.6
2022-07-26T20:57:39.443Z,54.2
2022-07-26T21:02:16.406Z,53.6
2022-07-26T21:06:53.277Z,54.2
2022-07-26T21:11:30.176Z,54.2
2022-07-26T21:16:09.848Z,54.2
2022-07-26T21:20:44.050Z,54.5
2022-07-26T21:25:20.964Z,54.8
2022-07-26T21:29:57.896Z,54.8
2022-07-26T21:34:34.810Z,54.5
2022-07-26T21:39:12.154Z,54.4
2022-07-26T21:43:48.680Z,54.4
2022-07-26T21:48:25.586Z,54.7
2022-07-26T21:53:02.487Z,54.4
2022-07-26T21:57:39.436Z,54.1
2022-07-26T22:02:19.974Z,54.1
2022-07-26T22:06:53.275Z,54.4
2022-07-26T22:11:30.174Z,54.4
2022-07-26T22:16:07.210Z,54.7
2022-07-26T22:20:44.104Z,54.7
2022-07-26T22:25:21.056Z,54.7
2022-07-26T22:29:57.966Z,54.7
2022-07-26T22:34:34.874Z,54.8
2022-07-26T22:39:12.356Z,54.4
2022-07-26T22:43:48.705Z,54.1
2022-07-26T22:48:25.595Z,54.1
2022-07-26T22:53:02.527Z,54.1
2022-07-26T22:57:39.407Z,54.1
2022-07-26T23:02:16.368Z,54.4
2022-07-26T23:06:54.855Z,54.8
2022-07-26T23:11:30.815Z,55.4
2022-07-26T23:16:07.177Z,55.1
2022-07-26T23:20:44.047Z,54.8
2022-07-26T23:25:20.945Z,55.1
2022-07-26T23:29:57.954Z,55.1
2022-07-26T23:34:34.822Z,55.4
2022-07-26T23:39:12.093Z,55.4
2022-07-26T23:43:48.636Z,55.4
2022-07-26T23:48:25.586Z,55.4
2022-07-26T23:53:03.387Z,56
2022-07-26T23:57:39.441Z,56
